createdAt,value
2023-03-05T00:02:17.991Z,50.66
2023-03-05T00:04:48.574Z,50.91
2023-03-05T00:07:18.144Z,50.54
2023-03-05T00:09:47.327Z,50.50
2023-03-05T00:12:17.256Z,50.65
2023-03-05T00:14:46.486Z,50.86
2023-03-05T00:17:15.941Z,50.97
2023-03-05T00:19:45.143Z,50.62
2023-03-05T00:22:16.018Z,50.76
2023-03-05T00:24:45.276Z,51.17
2023-03-05T00:27:15.158Z,50.92
2023-03-05T00:29:44.385Z,51.33
2023-03-05T00:32:13.827Z,51.15
2023-03-05T00:34:43.228Z,51.07
2023-03-05T00:37:14.117Z,51.39
2023-03-05T00:39:43.418Z,51.12
2023-03-05T00:42:12.919Z,51.51
2023-03-05T00:44:42.116Z,51.38
2023-03-05T00:47:11.851Z,51.47
2023-03-05T00:49:41.050Z,51.44
2023-03-05T00:52:10.490Z,51.70
2023-03-05T00:54:41.173Z,51.95
2023-03-05T00:57:11.033Z,52.17
2023-03-05T00:59:40.183Z,52.27
2023-03-05T01:02:10.640Z,52.50
2023-03-05T01:04:39.992Z,53.11
2023-03-05T01:07:09.425Z,52.98
2023-03-05T01:09:38.618Z,53.45
2023-03-05T01:12:10.285Z,54.08
2023-03-05T01:14:39.482Z,53.84
2023-03-05T01:17:10.138Z,54.12
2023-03-05T01:19:40.029Z,54.95
2023-03-05T01:22:09.553Z,55.50
2023-03-05T01:24:38.683Z,55.66
2023-03-05T01:27:09.829Z,56.90
2023-03-05T01:29:39.263Z,56.65
2023-03-05T01:32:09.034Z,56.20
2023-03-05T01:34:38.833Z,56.71
2023-03-05T01:37:08.283Z,57.01
2023-03-05T01:39:37.496Z,56.39
2023-03-05T01:42:08.835Z,56.58
2023-03-05T01:44:38.264Z,56.41
2023-03-05T01:47:08.384Z,56.69
2023-03-05T01:49:40.629Z,57.54
2023-03-05T01:52:14.075Z,57.51
2023-03-05T01:54:50.898Z,57.58
2023-03-05T01:57:24.951Z,57.88
2023-03-05T01:59:57.804Z,57.54
2023-03-05T02:02:27.513Z,57.65
2023-03-05T02:05:01.916Z,57.00
2023-03-05T02:07:32.901Z,57.18
2023-03-05T02:10:02.066Z,57.50
2023-03-05T02:12:33.050Z,57.74
2023-03-05T02:15:02.273Z,58.28
2023-03-05T02:17:32.694Z,57.27
2023-03-05T02:20:07.126Z,57.98
2023-03-05T02:22:38.045Z,58.28
2023-03-05T02:25:15.956Z,57.87
2023-03-05T02:27:51.625Z,58.06
2023-03-05T02:30:21.058Z,57.80
2023-03-05T02:32:51.470Z,57.50
2023-03-05T02:35:22.076Z,57.77
2023-03-05T02:37:53.048Z,57.91
2023-03-05T02:40:22.574Z,59.76
2023-03-05T02:42:53.102Z,60.41
2023-03-05T02:45:22.622Z,59.56
2023-03-05T02:47:52.058Z,59.58
2023-03-05T02:50:21.257Z,59.71
2023-03-05T02:52:52.297Z,60.36
2023-03-05T02:55:22.628Z,60.35
2023-03-05T02:57:52.109Z,60.51
2023-03-05T03:00:21.769Z,59.71
2023-03-05T03:02:51.461Z,59.79
2023-03-05T03:05:20.737Z,59.66
2023-03-05T03:07:51.610Z,59.32
2023-03-05T03:10:21.019Z,59.44
2023-03-05T03:12:50.491Z,59.18
2023-03-05T03:15:20.318Z,59.93
2023-03-05T03:17:49.864Z,59.55
2023-03-05T03:20:20.860Z,59.14
2023-03-05T03:22:52.018Z,59.46
2023-03-05T03:25:23.741Z,59.46
2023-03-05T03:27:54.971Z,59.14
2023-03-05T03:30:24.196Z,60.03
2023-03-05T03:32:54.017Z,60.70
2023-03-05T03:35:23.173Z,60.98
2023-03-05T03:37:54.058Z,61.33
2023-03-05T03:40:23.733Z,61.53
2023-03-05T03:42:53.895Z,62.52
2023-03-05T03:45:23.375Z,61.65
2023-03-05T03:47:53.148Z,62.04
2023-03-05T03:50:24.996Z,63.12
2023-03-05T03:52:56.003Z,64.33
2023-03-05T03:55:25.188Z,64.75
2023-03-05T03:57:54.621Z,64.85
2023-03-05T04:00:24.045Z,65.90
2023-03-05T04:02:53.677Z,65.21
2023-03-05T04:05:22.807Z,65.39
2023-03-05T04:07:52.280Z,66.97
2023-03-05T04:10:22.846Z,68.53
2023-03-05T04:12:52.405Z,68.15
2023-03-05T04:15:22.671Z,67.99
2023-03-05T04:17:52.120Z,68.07
2023-03-05T04:20:21.519Z,67.47
2023-03-05T04:22:51.245Z,67.89
2023-03-05T04:25:21.772Z,67.45
2023-03-05T04:27:53.602Z,67.84
2023-03-05T04:30:22.931Z,68.11
2023-03-05T04:32:52.330Z,67.95
2023-03-05T04:35:21.663Z,67.40
2023-03-05T04:37:51.372Z,67.55
2023-03-05T04:40:22.575Z,67.47
2023-03-05T04:42:52.073Z,67.42
2023-03-05T04:45:21.363Z,67.59
2023-03-05T04:47:50.928Z,68.04
2023-03-05T04:50:20.211Z,68.11
2023-03-05T04:52:50.069Z,68.40
2023-03-05T04:55:21.109Z,68.27
2023-03-05T04:57:50.650Z,68.54
2023-03-05T05:00:21.120Z,67.83
2023-03-05T05:02:52.567Z,67.65
2023-03-05T05:05:24.757Z,67.27
2023-03-05T05:07:56.566Z,67.20
2023-03-05T05:10:27.970Z,67.00
2023-03-05T05:12:57.437Z,67.21
2023-03-05T05:15:26.644Z,67.22
2023-03-05T05:17:56.098Z,66.84
2023-03-05T05:20:25.250Z,66.18
2023-03-05T05:22:54.657Z,66.08
2023-03-05T05:25:23.877Z,65.60
2023-03-05T05:27:54.694Z,66.26
2023-03-05T05:30:23.920Z,65.76
2023-03-05T05:32:53.359Z,66.58
2023-03-05T05:35:22.622Z,66.10
2023-03-05T05:37:52.154Z,65.77
2023-03-05T05:40:21.760Z,65.32
2023-03-05T05:42:51.178Z,65.05
2023-03-05T05:45:21.831Z,65.26
2023-03-05T05:47:51.359Z,65.48
2023-03-05T05:50:21.312Z,65.30
2023-03-05T05:52:52.024Z,65.19
2023-03-05T05:55:21.296Z,65.67
2023-03-05T05:57:50.744Z,65.35
2023-03-05T06:00:22.243Z,65.16
2023-03-05T06:02:51.841Z,65.42
2023-03-05T06:05:20.999Z,65.44
2023-03-05T06:07:50.549Z,65.59
2023-03-05T06:10:20.175Z,65.56
2023-03-05T06:12:49.719Z,65.65
2023-03-05T06:15:20.488Z,65.60
2023-03-05T06:17:50.014Z,65.31
2023-03-05T06:20:19.438Z,65.16
2023-03-05T06:22:48.920Z,65.19
2023-03-05T06:25:18.307Z,64.93
2023-03-05T06:27:47.909Z,65.08
2023-03-05T06:30:17.260Z,64.88
2023-03-05T06:32:48.118Z,64.77
2023-03-05T06:35:17.497Z,64.57
2023-03-05T06:37:47.101Z,64.41
2023-03-05T06:40:17.030Z,64.08
2023-03-05T06:42:46.298Z,64.12
2023-03-05T06:45:15.515Z,63.87
2023-03-05T06:47:45.040Z,63.56
2023-03-05T06:50:16.072Z,63.29
2023-03-05T06:52:45.642Z,63.29
2023-03-05T06:55:15.012Z,62.90
2023-03-05T06:57:44.477Z,62.65
2023-03-05T07:00:14.966Z,62.16
2023-03-05T07:02:44.557Z,61.96
2023-03-05T07:05:15.333Z,61.44
2023-03-05T07:07:44.885Z,61.23
2023-03-05T07:10:14.363Z,61.51
2023-03-05T07:12:43.880Z,60.73
2023-03-05T07:15:13.590Z,60.15
2023-03-05T07:17:43.072Z,59.61
2023-03-05T07:20:14.650Z,59.19
2023-03-05T07:22:44.195Z,57.34
2023-03-05T07:25:13.956Z,58.14
2023-03-05T07:27:43.464Z,57.21
2023-03-05T07:30:13.961Z,56.75
2023-03-05T07:32:43.796Z,56.89
2023-03-05T07:35:14.686Z,55.68
2023-03-05T07:37:44.273Z,54.84
2023-03-05T07:40:14.132Z,54.45
2023-03-05T07:42:43.899Z,54.85
2023-03-05T07:45:23.592Z,53.04
2023-03-05T07:47:53.159Z,52.50
2023-03-05T07:50:23.790Z,51.69
2023-03-05T07:52:53.943Z,51.62
2023-03-05T07:55:23.216Z,50.85
2023-03-05T07:57:53.215Z,51.64
2023-03-05T08:00:22.714Z,51.38
2023-03-05T08:02:52.265Z,50.80
2023-03-05T08:05:22.906Z,50.88
2023-03-05T08:07:52.570Z,50.92
2023-03-05T08:10:21.813Z,50.91
2023-03-05T08:12:51.533Z,50.98
2023-03-05T08:15:21.758Z,50.37
2023-03-05T08:17:51.233Z,50.90
2023-03-05T08:20:20.662Z,51.40
2023-03-05T08:22:51.617Z,50.15
2023-03-05T08:25:21.024Z,50.52
2023-03-05T08:27:50.600Z,49.76
2023-03-05T08:30:27.209Z,49.62
2023-03-05T08:32:57.461Z,49.21
2023-03-05T08:35:26.685Z,48.17
2023-03-05T08:37:57.591Z,48.29
2023-03-05T08:40:26.771Z,48.75
2023-03-05T08:42:56.202Z,47.59
2023-03-05T08:45:25.671Z,47.14
2023-03-05T08:47:56.346Z,47.40
2023-03-05T08:50:26.173Z,47.07
2023-03-05T08:52:57.403Z,46.32
2023-03-05T08:55:26.644Z,46.39
2023-03-05T08:57:56.077Z,46.62
2023-03-05T09:00:25.449Z,46.15
2023-03-05T09:02:55.011Z,45.96
2023-03-05T09:05:24.261Z,45.40
2023-03-05T09:07:53.759Z,45.70
2023-03-05T09:10:24.810Z,45.16
2023-03-05T09:12:54.388Z,45.53
2023-03-05T09:15:23.554Z,44.77
2023-03-05T09:17:53.232Z,45.02
2023-03-05T09:20:22.588Z,44.99
2023-03-05T09:22:52.074Z,45.35
2023-03-05T09:25:21.389Z,45.04
2023-03-05T09:27:52.233Z,44.39
2023-03-05T09:30:22.184Z,43.95
2023-03-05T09:32:52.253Z,43.48
2023-03-05T09:35:21.607Z,43.82
2023-03-05T09:37:52.697Z,43.92
2023-03-05T09:40:23.233Z,44.17
2023-03-05T09:43:05.142Z,43.41
2023-03-05T09:45:41.160Z,42.91
2023-03-05T09:48:18.676Z,42.83
2023-03-05T09:50:52.044Z,42.38
2023-03-05T09:53:32.255Z,42.20
2023-03-05T09:56:06.471Z,42.21
2023-03-05T09:58:41.313Z,41.57
2023-03-05T10:01:14.867Z,41.64
2023-03-05T10:03:53.481Z,40.87
2023-03-05T10:06:26.228Z,41.26
2023-03-05T10:08:59.376Z,41.09
2023-03-05T10:11:45.125Z,40.25
2023-03-05T10:14:24.656Z,41.05
2023-03-05T10:17:20.526Z,40.55
2023-03-05T10:20:15.280Z,40.61
2023-03-05T10:23:00.355Z,39.84
2023-03-05T10:25:44.989Z,40.36
2023-03-05T10:28:20.207Z,40.45
2023-03-05T10:31:25.473Z,39.95
2023-03-05T10:34:14.427Z,40.21
2023-03-05T10:36:57.148Z,39.84
2023-03-05T10:39:54.859Z,39.55
2023-03-05T10:42:31.962Z,39.53
2023-03-05T10:45:03.142Z,39.66
2023-03-05T10:47:43.758Z,39.11
2023-03-05T10:50:17.709Z,39.01
2023-03-05T10:52:51.857Z,39.61
2023-03-05T10:55:23.707Z,39.75
2023-03-05T10:57:53.189Z,38.37
2023-03-05T11:00:24.950Z,39.01
2023-03-05T11:03:03.985Z,38.41
2023-03-05T11:05:45.404Z,39.15
2023-03-05T11:08:32.068Z,38.10
2023-03-05T11:11:13.859Z,38.57
2023-03-05T11:13:54.830Z,38.60
2023-03-05T11:16:27.595Z,38.79
2023-03-05T11:19:22.472Z,38.44
2023-03-05T11:22:10.925Z,37.07
2023-03-05T11:24:41.527Z,37.77
2023-03-05T11:27:23.744Z,38.18
2023-03-05T11:29:53.439Z,38.22
2023-03-05T11:32:25.667Z,37.35
2023-03-05T11:34:59.444Z,37.36
2023-03-05T11:37:31.455Z,37.27
2023-03-05T11:40:24.272Z,36.01
2023-03-05T11:42:57.521Z,37.16
2023-03-05T11:45:29.470Z,36.15
2023-03-05T11:48:04.014Z,36.25
2023-03-05T11:50:37.226Z,34.23
2023-03-05T11:53:09.609Z,35.64
2023-03-05T11:55:43.776Z,35.15
2023-03-05T11:58:25.739Z,35.52
2023-03-05T12:00:55.707Z,35.46
2023-03-05T12:03:27.510Z,35.41
2023-03-05T12:06:01.536Z,36.46
2023-03-05T12:08:35.302Z,36.07
2023-03-05T12:11:15.568Z,35.59
2023-03-05T12:13:48.070Z,34.14
2023-03-05T12:16:32.023Z,35.23
2023-03-05T12:19:30.773Z,34.13
2023-03-05T12:22:01.922Z,34.01
2023-03-05T12:24:40.723Z,33.50
2023-03-05T12:27:32.540Z,33.73
2023-03-05T12:30:02.687Z,32.95
2023-03-05T12:33:02.544Z,32.08
2023-03-05T12:35:38.097Z,32.46
2023-03-05T12:38:31.678Z,32.21
2023-03-05T12:41:35.766Z,31.65
2023-03-05T12:44:23.800Z,32.68
2023-03-05T12:47:23.771Z,32.28
2023-03-05T12:49:53.154Z,32.37
2023-03-05T12:52:27.409Z,32.23
2023-03-05T12:55:16.928Z,31.40
2023-03-05T12:57:47.254Z,30.65
2023-03-05T13:00:23.303Z,30.05
2023-03-05T13:02:58.090Z,31.49
2023-03-05T13:05:30.885Z,30.58
2023-03-05T13:08:16.094Z,31.44
2023-03-05T13:10:53.500Z,31.24
2023-03-05T13:13:23.145Z,32.04
2023-03-05T13:15:54.181Z,32.31
2023-03-05T13:18:26.162Z,32.82
2023-03-05T13:21:04.604Z,32.19
2023-03-05T13:23:35.082Z,32.10
2023-03-05T13:26:15.411Z,32.46
2023-03-05T13:28:45.938Z,32.30
2023-03-05T13:31:18.762Z,31.46
2023-03-05T13:33:57.294Z,32.34
2023-03-05T13:36:28.289Z,32.91
2023-03-05T13:38:58.018Z,32.94
2023-03-05T13:41:30.432Z,32.96
2023-03-05T13:44:01.284Z,33.89
2023-03-05T13:46:33.432Z,33.30
2023-03-05T13:49:19.068Z,33.67
2023-03-05T13:51:50.273Z,34.27
2023-03-05T13:54:20.096Z,34.22
2023-03-05T13:56:56.639Z,34.83
2023-03-05T13:59:28.298Z,34.55
2023-03-05T14:01:59.015Z,34.23
2023-03-05T14:04:30.682Z,33.84
2023-03-05T14:07:03.560Z,33.01
2023-03-05T14:09:46.351Z,32.33
2023-03-05T14:12:30.485Z,32.72
2023-03-05T14:15:02.232Z,32.55
2023-03-05T14:17:43.297Z,33.08
2023-03-05T14:20:24.144Z,32.97
2023-03-05T14:22:58.022Z,32.72
2023-03-05T14:25:36.570Z,33.56
2023-03-05T14:28:22.228Z,33.70
2023-03-05T14:30:55.126Z,33.37
2023-03-05T14:33:26.162Z,33.49
2023-03-05T14:35:55.917Z,33.75
2023-03-05T14:38:28.903Z,33.85
2023-03-05T14:40:58.444Z,33.60
2023-03-05T14:43:29.573Z,33.94
2023-03-05T14:45:58.813Z,32.46
2023-03-05T14:48:28.243Z,29.92
2023-03-05T14:50:58.400Z,30.06
2023-03-05T14:53:30.723Z,30.08
2023-03-05T14:56:02.344Z,28.92
2023-03-05T14:58:35.602Z,29.41
2023-03-05T15:01:05.037Z,30.74
2023-03-05T15:03:34.588Z,30.92
2023-03-05T15:06:04.095Z,30.55
2023-03-05T15:08:34.308Z,31.21
2023-03-05T15:11:04.333Z,30.03
2023-03-05T15:13:36.555Z,30.15
2023-03-05T15:16:07.706Z,29.88
2023-03-05T15:18:37.457Z,30.02
2023-03-05T15:21:06.940Z,30.90
2023-03-05T15:23:38.626Z,30.82
2023-03-05T15:26:09.853Z,31.19
2023-03-05T15:28:42.262Z,31.28
2023-03-05T15:31:12.697Z,31.35
2023-03-05T15:33:42.596Z,32.14
2023-03-05T15:36:12.058Z,32.00
2023-03-05T15:38:41.774Z,32.77
2023-03-05T15:41:11.049Z,33.37
2023-03-05T15:43:42.436Z,33.43
2023-03-05T15:46:11.739Z,33.88
2023-03-05T15:48:44.148Z,34.00
2023-03-05T15:51:13.595Z,34.53
2023-03-05T15:53:44.601Z,35.56
2023-03-05T15:56:17.500Z,35.88
2023-03-05T15:58:50.955Z,36.46
2023-03-05T16:01:21.001Z,36.83
2023-03-05T16:03:50.594Z,36.97
2023-03-05T16:06:23.485Z,37.09
2023-03-05T16:08:57.220Z,37.50
2023-03-05T16:11:27.056Z,37.76
2023-03-05T16:14:01.761Z,37.81
2023-03-05T16:16:32.412Z,38.57
2023-03-05T16:19:02.883Z,39.06
2023-03-05T16:21:32.983Z,39.51
2023-03-05T16:24:03.219Z,39.61
2023-03-05T16:26:32.400Z,40.37
2023-03-05T16:29:03.971Z,40.29
2023-03-05T16:31:34.610Z,40.57
2023-03-05T16:34:04.505Z,40.84
2023-03-05T16:36:35.933Z,40.99
2023-03-05T16:39:06.677Z,42.48
2023-03-05T16:41:35.618Z,43.10
2023-03-05T16:44:07.558Z,42.61
2023-03-05T16:46:37.821Z,43.19
2023-03-05T16:49:08.534Z,42.85
2023-03-05T16:51:38.062Z,42.96
2023-03-05T16:54:10.149Z,42.31
2023-03-05T16:56:39.824Z,43.00
2023-03-05T16:59:12.821Z,43.25
2023-03-05T17:01:42.354Z,44.74
2023-03-05T17:04:13.220Z,43.81
2023-03-05T17:06:43.162Z,44.11
2023-03-05T17:09:13.079Z,44.61
2023-03-05T17:11:42.763Z,44.53
2023-03-05T17:14:13.813Z,45.20
2023-03-05T17:16:43.010Z,44.58
2023-03-05T17:19:14.353Z,45.88
2023-03-05T17:21:44.334Z,45.77
2023-03-05T17:24:14.207Z,45.94
2023-03-05T17:26:43.381Z,45.71
2023-03-05T17:29:15.065Z,45.82
2023-03-05T17:31:44.319Z,45.25
2023-03-05T17:34:14.445Z,46.30
2023-03-05T17:36:45.310Z,45.95
2023-03-05T17:39:16.108Z,45.39
2023-03-05T17:41:46.103Z,45.90
2023-03-05T17:44:16.989Z,45.75
2023-03-05T17:46:48.273Z,45.48
2023-03-05T17:49:22.780Z,46.24
2023-03-05T17:51:52.474Z,46.16
2023-03-05T17:54:21.919Z,46.98
2023-03-05T17:56:54.979Z,46.75
2023-03-05T17:59:26.347Z,46.92
2023-03-05T18:01:55.523Z,46.75
2023-03-05T18:04:25.406Z,48.52
2023-03-05T18:06:55.100Z,48.95
2023-03-05T18:09:24.715Z,49.80
2023-03-05T18:11:54.153Z,48.49
2023-03-05T18:14:25.320Z,48.90
2023-03-05T18:16:54.937Z,48.64
2023-03-05T18:19:25.280Z,48.56
2023-03-05T18:21:54.582Z,48.64
2023-03-05T18:24:24.560Z,49.32
2023-03-05T18:26:53.863Z,49.36
2023-03-05T18:29:25.603Z,48.78
2023-03-05T18:31:56.520Z,50.05
2023-03-05T18:34:27.005Z,49.67
2023-03-05T18:36:56.584Z,50.38
2023-03-05T18:39:29.788Z,50.95
2023-03-05T18:42:02.725Z,51.10
2023-03-05T18:44:33.640Z,50.69
2023-03-05T18:47:04.029Z,50.78
2023-03-05T18:49:33.664Z,51.40
2023-03-05T18:52:03.263Z,50.67
2023-03-05T18:54:35.133Z,51.08
2023-03-05T18:57:04.385Z,50.44
2023-03-05T18:59:35.688Z,51.80
2023-03-05T19:02:05.121Z,52.35
2023-03-05T19:04:34.799Z,53.30
2023-03-05T19:07:06.090Z,53.34
2023-03-05T19:09:52.160Z,52.78
2023-03-05T19:12:22.254Z,54.69
2023-03-05T19:14:53.853Z,53.91
2023-03-05T19:17:24.018Z,54.92
2023-03-05T19:19:58.082Z,54.82
2023-03-05T19:22:29.582Z,56.35
2023-03-05T19:24:59.594Z,55.48
2023-03-05T19:27:29.036Z,55.08
2023-03-05T19:30:00.230Z,55.52
2023-03-05T19:32:29.786Z,55.54
2023-03-05T19:35:00.288Z,55.39
2023-03-05T19:37:29.621Z,56.63
2023-03-05T19:39:59.171Z,56.66
2023-03-05T19:42:28.501Z,56.32
2023-03-05T19:45:00.436Z,56.85
2023-03-05T19:47:30.569Z,57.49
2023-03-05T19:50:02.376Z,57.12
2023-03-05T19:52:35.464Z,57.50
2023-03-05T19:55:05.228Z,57.24
2023-03-05T19:57:34.445Z,56.41
2023-03-05T20:00:05.948Z,57.45
2023-03-05T20:02:35.153Z,58.03
2023-03-05T20:05:06.431Z,58.39
2023-03-05T20:07:35.610Z,58.37
2023-03-05T20:10:06.256Z,58.47
2023-03-05T20:12:37.252Z,59.48
2023-03-05T20:15:11.588Z,58.52
2023-03-05T20:17:46.106Z,58.32
2023-03-05T20:20:18.279Z,58.36
2023-03-05T20:22:48.741Z,58.71
2023-03-05T20:25:21.275Z,59.66
2023-03-05T20:27:50.539Z,59.54
2023-03-05T20:30:22.636Z,59.19
2023-03-05T20:32:51.950Z,58.93
2023-03-05T20:35:21.410Z,59.10
2023-03-05T20:38:00.311Z,59.65
2023-03-05T20:40:30.007Z,59.15
2023-03-05T20:42:59.205Z,59.94
2023-03-05T20:45:30.159Z,60.87
2023-03-05T20:47:59.356Z,60.34
2023-03-05T20:50:28.958Z,61.29
2023-03-05T20:52:58.906Z,61.35
2023-03-05T20:55:29.172Z,60.74
2023-03-05T20:57:59.365Z,61.47
2023-03-05T21:00:30.370Z,61.90
2023-03-05T21:03:00.145Z,60.90
2023-03-05T21:05:31.286Z,62.01
2023-03-05T21:08:04.277Z,61.98
2023-03-05T21:10:34.280Z,61.13
2023-03-05T21:13:03.756Z,62.63
2023-03-05T21:15:34.682Z,61.29
2023-03-05T21:18:03.897Z,61.84
2023-03-05T21:20:33.585Z,61.80
2023-03-05T21:23:03.924Z,61.43
2023-03-05T21:25:34.139Z,61.51
2023-03-05T21:28:05.364Z,61.75
2023-03-05T21:30:39.312Z,61.67
2023-03-05T21:33:11.269Z,61.53
2023-03-05T21:35:41.373Z,61.12
2023-03-05T21:38:12.047Z,61.27
2023-03-05T21:40:45.641Z,60.50
2023-03-05T21:43:16.275Z,61.34
2023-03-05T21:45:47.849Z,61.82
2023-03-05T21:48:17.311Z,60.96
2023-03-05T21:50:47.835Z,61.25
2023-03-05T21:53:17.921Z,61.61
2023-03-05T21:56:03.185Z,61.12
2023-03-05T21:58:33.609Z,61.23
2023-03-05T22:01:05.099Z,61.42
2023-03-05T22:03:34.366Z,61.49
2023-03-05T22:06:03.839Z,61.21
2023-03-05T22:08:33.209Z,61.26
2023-03-05T22:11:02.831Z,60.85
2023-03-05T22:13:32.023Z,60.81
2023-03-05T22:16:01.531Z,60.79
2023-03-05T22:18:34.218Z,60.87
2023-03-05T22:21:04.554Z,61.42
2023-03-05T22:23:35.318Z,60.95
2023-03-05T22:26:07.047Z,61.67
2023-03-05T22:28:38.973Z,61.30
2023-03-05T22:31:08.871Z,60.58
2023-03-05T22:33:39.530Z,61.15
2023-03-05T22:36:13.900Z,61.25
2023-03-05T22:38:43.568Z,61.04
2023-03-05T22:41:14.933Z,60.90
2023-03-05T22:43:44.272Z,61.11
2023-03-05T22:46:15.671Z,61.38
2023-03-05T22:48:46.984Z,60.88
2023-03-05T22:51:17.589Z,61.03
2023-03-05T22:53:47.209Z,61.18
2023-03-05T22:56:18.854Z,60.85
2023-03-05T22:58:48.520Z,61.15
2023-03-05T23:01:19.916Z,61.23
2023-03-05T23:03:57.343Z,61.39
2023-03-05T23:06:26.995Z,61.24
2023-03-05T23:08:56.348Z,61.44
2023-03-05T23:11:25.942Z,61.87
2023-03-05T23:13:55.081Z,61.98
2023-03-05T23:16:24.541Z,62.16
2023-03-05T23:18:56.183Z,61.73
2023-03-05T23:21:25.641Z,62.43
2023-03-05T23:23:56.628Z,62.31
2023-03-05T23:26:26.181Z,62.00
2023-03-05T23:28:55.297Z,62.50
2023-03-05T23:31:24.926Z,62.91
2023-03-05T23:33:55.452Z,63.39
2023-03-05T23:36:26.108Z,63.89
2023-03-05T23:38:57.612Z,63.65
2023-03-05T23:41:27.129Z,63.43
2023-03-05T23:43:56.273Z,63.39
2023-03-05T23:46:25.792Z,63.43
2023-03-05T23:48:56.396Z,62.93
2023-03-05T23:51:25.880Z,62.72
2023-03-05T23:53:55.010Z,63.05
2023-03-05T23:56:24.542Z,63.61
2023-03-05T23:58:56.104Z,63.50
